sensor_id;sensor_type;location;lat;lon;timestamp;P1;durP1;ratioP1;P2;durP2;ratioP2
76403;SDS011;65232;48.358;2.122;2023-12-20T00:00:19;3.03;;;1.98;;
76403;SDS011;65232;48.358;2.122;2023-12-20T00:00:45;3.63;;;2.20;;
76403;SDS011;65232;48.358;2.122;2023-12-20T00:01:10;4.28;;;2.60;;
76403;SDS011;65232;48.358;2.122;2023-12-20T00:01:36;3.90;;;1.98;;
76403;SDS011;65232;48.358;2.122;2023-12-20T00:02:01;2.50;;;1.58;;
76403;SDS011;65232;48.358;2.122;2023-12-20T00:02:27;2.22;;;1.58;;
76403;SDS011;65232;48.358;2.122;2023-12-20T00:02:53;3.13;;;1.98;;
76403;SDS011;65232;48.358;2.122;2023-12-20T00:03:18;3.03;;;1.98;;
76403;SDS011;65232;48.358;2.122;2023-12-20T00:03:43;2.83;;;1.80;;
76403;SDS011;65232;48.358;2.122;2023-12-20T00:04:09;3.13;;;1.67;;
76403;SDS011;65232;48.358;2.122;2023-12-20T00:04:34;1.95;;;1.50;;
76403;SDS011;65232;48.358;2.122;2023-12-20T00:05:00;3.72;;;1.85;;
76403;SDS011;65232;48.358;2.122;2023-12-20T00:05:25;2.17;;;1.58;;
76403;SDS011;65232;48.358;2.122;2023-12-20T00:05:50;2.95;;;1.95;;
76403;SDS011;65232;48.358;2.122;2023-12-20T00:06:16;2.45;;;1.70;;
76403;SDS011;65232;48.358;2.122;2023-12-20T00:06:41;2.67;;;2.13;;
76403;SDS011;65232;48.358;2.122;2023-12-20T00:07:06;2.70;;;1.70;;
76403;SDS011;65232;48.358;2.122;2023-12-20T00:07:32;3.50;;;1.88;;
76403;SDS011;65232;48.358;2.122;2023-12-20T00:07:57;2.90;;;1.50;;
76403;SDS011;65232;48.358;2.122;2023-12-20T00:08:23;4.13;;;1.45;;
76403;SDS011;65232;48.358;2.122;2023-12-20T00:08:48;2.28;;;1.60;;
76403;SDS011;65232;48.358;2.122;2023-12-20T00:09:14;2.00;;;1.52;;
76403;SDS011;65232;48.358;2.122;2023-12-20T00:09:39;3.10;;;1.90;;
76403;SDS011;65232;48.358;2.122;2023-12-20T00:10:04;1.98;;;1.40;;
76403;SDS011;65232;48.358;2.122;2023-12-20T00:10:30;3.10;;;1.70;;
76403;SDS011;65232;48.358;2.122;2023-12-20T00:10:55;2.25;;;1.85;;
76403;SDS011;65232;48.358;2.122;2023-12-20T00:11:21;2.72;;;1.88;;
76403;SDS011;65232;48.358;2.122;2023-12-20T00:11:46;2.92;;;1.70;;
76403;SDS011;65232;48.358;2.122;2023-12-20T00:12:11;2.67;;;1.63;;
76403;SDS011;65232;48.358;2.122;2023-12-20T00:12:37;2.67;;;1.77;;
76403;SDS011;65232;48.358;2.122;2023-12-20T00:13:02;2.53;;;1.75;;
76403;SDS011;65232;48.358;2.122;2023-12-20T00:13:28;3.90;;;1.52;;
76403;SDS011;65232;48.358;2.122;2023-12-20T00:13:53;2.97;;;1.60;;
76403;SDS011;65232;48.358;2.122;2023-12-20T00:14:18;3.05;;;1.80;;
76403;SDS011;65232;48.358;2.122;2023-12-20T00:14:44;2.65;;;1.90;;
76403;SDS011;65232;48.358;2.122;2023-12-20T00:15:09;3.28;;;1.80;;
76403;SDS011;65232;48.358;2.122;2023-12-20T00:15:34;2.70;;;1.70;;
76403;SDS011;65232;48.358;2.122;2023-12-20T00:16:00;3.05;;;2.17;;
76403;SDS011;65232;48.358;2.122;2023-12-20T00:16:25;3.33;;;1.60;;
76403;SDS011;65232;48.358;2.122;2023-12-20T00:16:51;2.70;;;1.88;;
76403;SDS011;65232;48.358;2.122;2023-12-20T00:17:16;2.35;;;1.60;;
76403;SDS011;65232;48.358;2.122;2023-12-20T00:17:41;3.40;;;2.00;;
76403;SDS011;65232;48.358;2.122;2023-12-20T00:18:07;2.88;;;1.90;;
76403;SDS011;65232;48.358;2.122;2023-12-20T00:18:32;3.20;;;1.95;;
76403;SDS011;65232;48.358;2.122;2023-12-20T00:18:58;4.70;;;2.47;;
76403;SDS011;65232;48.358;2.122;2023-12-20T00:19:23;3.85;;;2.10;;
76403;SDS011;65232;48.358;2.122;2023-12-20T00:19:49;2.88;;;1.98;;
76403;SDS011;65232;48.358;2.122;2023-12-20T00:20:14;3.05;;;2.15;;
76403;SDS011;65232;48.358;2.122;2023-12-20T00:20:39;3.38;;;2.20;;
76403;SDS011;65232;48.358;2.122;2023-12-20T00:21:05;3.72;;;2.10;;
76403;SDS011;65232;48.358;2.122;2023-12-20T00:21:30;3.20;;;1.95;;
76403;SDS011;65232;48.358;2.122;2023-12-20T00:21:55;3.60;;;1.98;;
76403;SDS011;65232;48.358;2.122;2023-12-20T00:22:21;2.90;;;1.77;;
76403;SDS011;65232;48.358;2.122;2023-12-20T00:22:46;3.55;;;2.10;;
76403;SDS011;65232;48.358;2.122;2023-12-20T00:23:12;4.05;;;1.75;;
76403;SDS011;65232;48.358;2.122;2023-12-20T00:23:37;4.07;;;2.17;;
76403;SDS011;65232;48.358;2.122;2023-12-20T00:24:02;4.00;;;2.17;;
76403;SDS011;65232;48.358;2.122;2023-12-20T00:24:28;3.53;;;1.95;;
76403;SDS011;65232;48.358;2.122;2023-12-20T00:24:53;3.13;;;1.92;;
76403;SDS011;65232;48.358;2.122;2023-12-20T00:25:19;3.58;;;2.35;;
76403;SDS011;65232;48.358;2.122;2023-12-20T00:25:44;3.67;;;2.10;;
76403;SDS011;65232;48.358;2.122;2023-12-20T00:26:10;4.35;;;2.28;;
76403;SDS011;65232;48.358;2.122;2023-12-20T00:26:35;3.25;;;2.20;;
76403;SDS011;65232;48.358;2.122;2023-12-20T00:27:00;4.70;;;2.00;;
76403;SDS011;65232;48.358;2.122;2023-12-20T00:27:26;3.13;;;1.83;;
76403;SDS011;65232;48.358;2.122;2023-12-20T00:27:51;3.88;;;2.20;;
76403;SDS011;65232;48.358;2.122;2023-12-20T00:28:17;3.90;;;1.80;;
76403;SDS011;65232;48.358;2.122;2023-12-20T00:28:42;2.53;;;1.70;;
76403;SDS011;65232;48.358;2.122;2023-12-20T00:29:08;2.90;;;1.80;;
76403;SDS011;65232;48.358;2.122;2023-12-20T00:29:33;2.83;;;1.80;;
76403;SDS011;65232;48.358;2.122;2023-12-20T00:29:59;2.92;;;2.05;;
76403;SDS011;65232;48.358;2.122;2023-12-20T00:30:25;3.03;;;1.80;;
76403;SDS011;65232;48.358;2.122;2023-12-20T00:30:50;2.75;;;1.65;;
76403;SDS011;65232;48.358;2.122;2023-12-20T00:31:15;2.85;;;1.95;;
76403;SDS011;65232;48.358;2.122;2023-12-20T00:31:41;2.90;;;1.70;;
76403;SDS011;65232;48.358;2.122;2023-12-20T00:32:06;2.78;;;1.70;;
76403;SDS011;65232;48.358;2.122;2023-12-20T00:32:31;2.60;;;1.70;;
76403;SDS011;65232;48.358;2.122;2023-12-20T00:32:57;3.88;;;1.58;;
76403;SDS011;65232;48.358;2.122;2023-12-20T00:33:22;3.38;;;1.63;;
76403;SDS011;65232;48.358;2.122;2023-12-20T00:33:48;1.95;;;1.50;;
76403;SDS011;65232;48.358;2.122;2023-12-20T00:34:13;3.78;;;1.80;;
76403;SDS011;65232;48.358;2.122;2023-12-20T00:34:39;2.67;;;1.80;;
76403;SDS011;65232;48.358;2.122;2023-12-20T00:35:04;3.15;;;1.92;;
76403;SDS011;65232;48.358;2.122;2023-12-20T00:35:30;3.63;;;1.88;;
76403;SDS011;65232;48.358;2.122;2023-12-20T00:35:55;2.58;;;1.80;;
76403;SDS011;65232;48.358;2.122;2023-12-20T00:36:20;3.40;;;1.98;;
76403;SDS011;65232;48.358;2.122;2023-12-20T00:36:46;2.58;;;1.90;;
76403;SDS011;65232;48.358;2.122;2023-12-20T00:37:12;2.55;;;1.77;;
76403;SDS011;65232;48.358;2.122;2023-12-20T00:37:37;2.97;;;1.63;;
76403;SDS011;65232;48.358;2.122;2023-12-20T00:38:03;2.40;;;1.67;;
76403;SDS011;65232;48.358;2.122;2023-12-20T00:38:30;3.05;;;1.95;;
76403;SDS011;65232;48.358;2.122;2023-12-20T00:38:55;3.35;;;1.80;;
76403;SDS011;65232;48.358;2.122;2023-12-20T00:39:21;3.13;;;2.00;;
76403;SDS011;65232;48.358;2.122;2023-12-20T00:39:46;3.30;;;1.80;;
76403;SDS011;65232;48.358;2.122;2023-12-20T00:40:11;3.92;;;1.88;;
76403;SDS011;65232;48.358;2.122;2023-12-20T00:40:37;3.63;;;1.88;;
76403;SDS011;65232;48.358;2.122;2023-12-20T00:41:02;3.17;;;1.80;;
76403;SDS011;65232;48.358;2.122;2023-12-20T00:41:28;3.10;;;1.90;;
76403;SDS011;65232;48.358;2.122;2023-12-20T00:41:53;3.65;;;2.05;;
76403;SDS011;65232;48.358;2.122;2023-12-20T00:42:19;2.42;;;1.80;;
76403;SDS011;65232;48.358;2.122;2023-12-20T00:42:44;4.43;;;1.90;;
76403;SDS011;65232;48.358;2.122;2023-12-20T00:43:11;2.75;;;2.08;;
76403;SDS011;65232;48.358;2.122;2023-12-20T00:43:37;2.95;;;2.10;;
76403;SDS011;65232;48.358;2.122;2023-12-20T00:44:02;2.65;;;1.90;;
76403;SDS011;65232;48.358;2.122;2023-12-20T00:44:28;2.85;;;2.10;;
76403;SDS011;65232;48.358;2.122;2023-12-20T00:44:53;3.15;;;1.80;;
76403;SDS011;65232;48.358;2.122;2023-12-20T00:45:19;2.97;;;2.13;;
76403;SDS011;65232;48.358;2.122;2023-12-20T00:45:44;3.42;;;2.20;;
76403;SDS011;65232;48.358;2.122;2023-12-20T00:46:10;2.50;;;2.00;;
76403;SDS011;65232;48.358;2.122;2023-12-20T00:46:35;3.65;;;2.30;;
76403;SDS011;65232;48.358;2.122;2023-12-20T00:47:00;2.53;;;2.05;;
76403;SDS011;65232;48.358;2.122;2023-12-20T00:47:26;3.17;;;1.90;;
76403;SDS011;65232;48.358;2.122;2023-12-20T00:47:51;3.80;;;2.30;;
76403;SDS011;65232;48.358;2.122;2023-12-20T00:48:17;2.67;;;2.25;;
76403;SDS011;65232;48.358;2.122;2023-12-20T00:48:42;3.25;;;2.20;;
76403;SDS011;65232;48.358;2.122;2023-12-20T00:49:08;3.35;;;2.30;;
76403;SDS011;65232;48.358;2.122;2023-12-20T00:49:34;3.38;;;2.30;;
76403;SDS011;65232;48.358;2.122;2023-12-20T00:49:59;3.65;;;2.60;;
76403;SDS011;65232;48.358;2.122;2023-12-20T00:50:25;5.40;;;2.58;;
76403;SDS011;65232;48.358;2.122;2023-12-20T00:50:50;3.55;;;2.70;;
76403;SDS011;65232;48.358;2.122;2023-12-20T00:51:15;3.78;;;2.72;;
76403;SDS011;65232;48.358;2.122;2023-12-20T00:51:41;4.68;;;2.63;;
76403;SDS011;65232;48.358;2.122;2023-12-20T00:52:06;5.82;;;3.03;;
76403;SDS011;65232;48.358;2.122;2023-12-20T00:52:31;4.20;;;2.80;;
76403;SDS011;65232;48.358;2.122;2023-12-20T00:52:57;3.03;;;2.47;;
76403;SDS011;65232;48.358;2.122;2023-12-20T00:53:22;4.85;;;2.90;;
76403;SDS011;65232;48.358;2.122;2023-12-20T00:53:49;4.20;;;3.00;;
76403;SDS011;65232;48.358;2.122;2023-12-20T00:54:15;4.70;;;2.70;;
76403;SDS011;65232;48.358;2.122;2023-12-20T00:54:41;4.22;;;2.80;;
76403;SDS011;65232;48.358;2.122;2023-12-20T00:55:06;5.18;;;2.80;;
76403;SDS011;65232;48.358;2.122;2023-12-20T00:55:31;5.28;;;3.25;;
76403;SDS011;65232;48.358;2.122;2023-12-20T00:55:57;4.40;;;2.85;;
76403;SDS011;65232;48.358;2.122;2023-12-20T00:56:23;4.22;;;2.90;;
76403;SDS011;65232;48.358;2.122;2023-12-20T00:56:49;4.22;;;2.83;;
76403;SDS011;65232;48.358;2.122;2023-12-20T00:57:14;3.40;;;2.72;;
76403;SDS011;65232;48.358;2.122;2023-12-20T00:57:40;6.80;;;2.95;;
76403;SDS011;65232;48.358;2.122;2023-12-20T00:58:05;4.57;;;3.05;;
76403;SDS011;65232;48.358;2.122;2023-12-20T00:58:31;4.03;;;2.53;;
76403;SDS011;65232;48.358;2.122;2023-12-20T00:58:57;5.25;;;2.80;;
76403;SDS011;65232;48.358;2.122;2023-12-20T00:59:22;4.65;;;2.60;;
76403;SDS011;65232;48.358;2.122;2023-12-20T00:59:48;4.07;;;2.45;;
76403;SDS011;65232;48.358;2.122;2023-12-20T01:00:13;4.57;;;2.30;;
76403;SDS011;65232;48.358;2.122;2023-12-20T01:00:39;4.28;;;2.60;;
76403;SDS011;65232;48.358;2.122;2023-12-20T01:01:04;4.03;;;2.40;;
76403;SDS011;65232;48.358;2.122;2023-12-20T01:01:29;3.33;;;2.50;;
76403;SDS011;65232;48.358;2.122;2023-12-20T01:01:55;4.18;;;2.60;;
76403;SDS011;65232;48.358;2.122;2023-12-20T01:02:20;4.53;;;2.78;;
76403;SDS011;65232;48.358;2.122;2023-12-20T01:02:45;3.65;;;2.50;;
76403;SDS011;65232;48.358;2.122;2023-12-20T01:03:14;3.28;;;2.67;;
76403;SDS011;65232;48.358;2.122;2023-12-20T01:03:40;3.53;;;2.33;;
76403;SDS011;65232;48.358;2.122;2023-12-20T01:04:05;3.75;;;2.30;;
76403;SDS011;65232;48.358;2.122;2023-12-20T01:04:31;4.28;;;2.47;;
76403;SDS011;65232;48.358;2.122;2023-12-20T01:04:56;5.80;;;2.80;;
76403;SDS011;65232;48.358;2.122;2023-12-20T01:05:21;3.85;;;2.60;;
76403;SDS011;65232;48.358;2.122;2023-12-20T01:05:49;3.13;;;2.50;;
76403;SDS011;65232;48.358;2.122;2023-12-20T01:06:15;3.38;;;2.20;;
76403;SDS011;65232;48.358;2.122;2023-12-20T01:06:41;5.40;;;2.70;;
76403;SDS011;65232;48.358;2.122;2023-12-20T01:07:07;3.95;;;2.38;;
76403;SDS011;65232;48.358;2.122;2023-12-20T01:07:33;3.53;;;2.53;;
76403;SDS011;65232;48.358;2.122;2023-12-20T01:07:58;4.97;;;2.30;;
76403;SDS011;65232;48.358;2.122;2023-12-20T01:08:24;7.22;;;2.90;;
76403;SDS011;65232;48.358;2.122;2023-12-20T01:08:49;3.88;;;2.30;;
76403;SDS011;65232;48.358;2.122;2023-12-20T01:09:14;3.95;;;2.50;;
76403;SDS011;65232;48.358;2.122;2023-12-20T01:09:40;4.68;;;2.60;;
76403;SDS011;65232;48.358;2.122;2023-12-20T01:10:05;4.32;;;2.80;;
76403;SDS011;65232;48.358;2.122;2023-12-20T01:10:31;3.90;;;2.35;;
76403;SDS011;65232;48.358;2.122;2023-12-20T01:10:57;6.40;;;2.22;;
76403;SDS011;65232;48.358;2.122;2023-12-20T01:11:22;4.68;;;2.30;;
76403;SDS011;65232;48.358;2.122;2023-12-20T01:11:47;3.80;;;2.33;;
76403;SDS011;65232;48.358;2.122;2023-12-20T01:12:13;5.13;;;2.17;;
76403;SDS011;65232;48.358;2.122;2023-12-20T01:12:38;4.50;;;2.53;;
76403;SDS011;65232;48.358;2.122;2023-12-20T01:13:04;3.55;;;2.20;;
76403;SDS011;65232;48.358;2.122;2023-12-20T01:13:29;6.55;;;2.17;;
76403;SDS011;65232;48.358;2.122;2023-12-20T01:13:55;4.35;;;2.03;;
76403;SDS011;65232;48.358;2.122;2023-12-20T01:14:20;6.15;;;2.25;;
76403;SDS011;65232;48.358;2.122;2023-12-20T01:14:45;2.88;;;1.73;;
76403;SDS011;65232;48.358;2.122;2023-12-20T01:15:11;3.92;;;1.90;;
76403;SDS011;65232;48.358;2.122;2023-12-20T01:15:36;5.13;;;2.00;;
76403;SDS011;65232;48.358;2.122;2023-12-20T01:16:02;5.50;;;2.33;;
76403;SDS011;65232;48.358;2.122;2023-12-20T01:16:27;2.55;;;1.77;;
76403;SDS011;65232;48.358;2.122;2023-12-20T01:16:53;3.38;;;1.55;;
76403;SDS011;65232;48.358;2.122;2023-12-20T01:17:18;5.20;;;2.00;;
76403;SDS011;65232;48.358;2.122;2023-12-20T01:17:43;3.70;;;1.73;;
76403;SDS011;65232;48.358;2.122;2023-12-20T01:18:09;3.40;;;1.63;;
76403;SDS011;65232;48.358;2.122;2023-12-20T01:18:34;2.95;;;1.42;;
76403;SDS011;65232;48.358;2.122;2023-12-20T01:19:00;3.90;;;1.50;;
76403;SDS011;65232;48.358;2.122;2023-12-20T01:19:25;2.35;;;1.60;;
76403;SDS011;65232;48.358;2.122;2023-12-20T01:19:52;5.82;;;1.73;;
76403;SDS011;65232;48.358;2.122;2023-12-20T01:20:17;3.60;;;1.70;;
76403;SDS011;65232;48.358;2.122;2023-12-20T01:20:45;3.10;;;1.20;;
76403;SDS011;65232;48.358;2.122;2023-12-20T01:21:10;6.13;;;1.67;;
76403;SDS011;65232;48.358;2.122;2023-12-20T01:21:35;5.40;;;1.20;;
76403;SDS011;65232;48.358;2.122;2023-12-20T01:22:01;3.72;;;1.42;;
76403;SDS011;65232;48.358;2.122;2023-12-20T01:22:26;3.67;;;1.55;;
76403;SDS011;65232;48.358;2.122;2023-12-20T01:22:51;4.47;;;1.10;;
76403;SDS011;65232;48.358;2.122;2023-12-20T01:23:17;6.70;;;1.27;;
76403;SDS011;65232;48.358;2.122;2023-12-20T01:23:43;2.20;;;1.17;;
76403;SDS011;65232;48.358;2.122;2023-12-20T01:24:08;2.88;;;1.10;;
76403;SDS011;65232;48.358;2.122;2023-12-20T01:24:34;2.72;;;1.30;;
76403;SDS011;65232;48.358;2.122;2023-12-20T01:24:59;3.15;;;1.40;;
76403;SDS011;65232;48.358;2.122;2023-12-20T01:25:24;2.10;;;1.20;;
76403;SDS011;65232;48.358;2.122;2023-12-20T01:25:50;2.83;;;1.40;;
76403;SDS011;65232;48.358;2.122;2023-12-20T01:26:15;5.72;;;1.13;;
76403;SDS011;65232;48.358;2.122;2023-12-20T01:26:41;2.15;;;1.23;;
76403;SDS011;65232;48.358;2.122;2023-12-20T01:27:06;4.10;;;1.00;;
76403;SDS011;65232;48.358;2.122;2023-12-20T01:27:31;6.05;;;1.60;;
76403;SDS011;65232;48.358;2.122;2023-12-20T01:27:57;3.47;;;1.20;;
76403;SDS011;65232;48.358;2.122;2023-12-20T01:28:22;2.70;;;1.20;;
76403;SDS011;65232;48.358;2.122;2023-12-20T01:28:48;6.03;;;1.10;;
76403;SDS011;65232;48.358;2.122;2023-12-20T01:29:13;3.83;;;1.17;;
76403;SDS011;65232;48.358;2.122;2023-12-20T01:29:39;4.05;;;0.90;;
76403;SDS011;65232;48.358;2.122;2023-12-20T01:30:04;2.88;;;1.17;;
76403;SDS011;65232;48.358;2.122;2023-12-20T01:30:30;5.90;;;1.42;;
76403;SDS011;65232;48.358;2.122;2023-12-20T01:30:55;5.30;;;1.20;;
76403;SDS011;65232;48.358;2.122;2023-12-20T01:31:21;3.10;;;1.10;;
76403;SDS011;65232;48.358;2.122;2023-12-20T01:31:46;3.95;;;1.30;;
76403;SDS011;65232;48.358;2.122;2023-12-20T01:32:11;2.72;;;1.10;;
76403;SDS011;65232;48.358;2.122;2023-12-20T01:32:37;2.88;;;1.20;;
76403;SDS011;65232;48.358;2.122;2023-12-20T01:33:02;3.70;;;1.30;;
76403;SDS011;65232;48.358;2.122;2023-12-20T01:33:28;3.63;;;1.20;;
76403;SDS011;65232;48.358;2.122;2023-12-20T01:33:53;2.97;;;1.00;;
76403;SDS011;65232;48.358;2.122;2023-12-20T01:34:19;4.45;;;1.20;;
76403;SDS011;65232;48.358;2.122;2023-12-20T01:34:44;4.80;;;1.10;;
76403;SDS011;65232;48.358;2.122;2023-12-20T01:35:09;4.68;;;1.20;;
76403;SDS011;65232;48.358;2.122;2023-12-20T01:35:35;2.63;;;1.20;;
76403;SDS011;65232;48.358;2.122;2023-12-20T01:36:00;5.07;;;1.40;;
76403;SDS011;65232;48.358;2.122;2023-12-20T01:36:25;4.25;;;1.30;;
76403;SDS011;65232;48.358;2.122;2023-12-20T01:36:51;5.07;;;1.65;;
76403;SDS011;65232;48.358;2.122;2023-12-20T01:37:17;6.30;;;1.10;;
76403;SDS011;65232;48.358;2.122;2023-12-20T01:37:42;6.20;;;1.52;;
76403;SDS011;65232;48.358;2.122;2023-12-20T01:38:08;4.38;;;1.20;;
76403;SDS011;65232;48.358;2.122;2023-12-20T01:38:59;4.43;;;1.35;;
76403;SDS011;65232;48.358;2.122;2023-12-20T01:39:24;4.63;;;1.05;;
76403;SDS011;65232;48.358;2.122;2023-12-20T01:39:50;7.45;;;1.50;;
76403;SDS011;65232;48.358;2.122;2023-12-20T01:40:15;4.47;;;1.27;;
76403;SDS011;65232;48.358;2.122;2023-12-20T01:40:40;4.47;;;1.27;;
76403;SDS011;65232;48.358;2.122;2023-12-20T01:41:06;2.42;;;1.10;;
76403;SDS011;65232;48.358;2.122;2023-12-20T01:41:31;4.25;;;1.30;;
76403;SDS011;65232;48.358;2.122;2023-12-20T01:41:56;3.22;;;1.00;;
76403;SDS011;65232;48.358;2.122;2023-12-20T01:42:22;3.88;;;1.10;;
76403;SDS011;65232;48.358;2.122;2023-12-20T01:42:57;3.40;;;1.00;;
76403;SDS011;65232;48.358;2.122;2023-12-20T01:43:23;5.53;;;1.50;;
76403;SDS011;65232;48.358;2.122;2023-12-20T01:43:49;3.65;;;1.08;;
76403;SDS011;65232;48.358;2.122;2023-12-20T01:44:14;5.75;;;0.95;;
76403;SDS011;65232;48.358;2.122;2023-12-20T01:44:40;7.60;;;1.30;;
76403;SDS011;65232;48.358;2.122;2023-12-20T01:45:05;4.53;;;1.35;;
76403;SDS011;65232;48.358;2.122;2023-12-20T01:45:31;5.20;;;1.30;;
76403;SDS011;65232;48.358;2.122;2023-12-20T01:45:59;3.60;;;1.10;;
76403;SDS011;65232;48.358;2.122;2023-12-20T01:46:25;5.82;;;1.20;;
76403;SDS011;65232;48.358;2.122;2023-12-20T01:46:51;3.30;;;1.00;;
76403;SDS011;65232;48.358;2.122;2023-12-20T01:47:16;6.32;;;1.30;;
76403;SDS011;65232;48.358;2.122;2023-12-20T01:47:41;4.43;;;1.10;;
76403;SDS011;65232;48.358;2.122;2023-12-20T01:48:08;4.57;;;1.10;;
76403;SDS011;65232;48.358;2.122;2023-12-20T01:48:34;3.92;;;1.13;;
76403;SDS011;65232;48.358;2.122;2023-12-20T01:49:00;3.42;;;1.00;;
76403;SDS011;65232;48.358;2.122;2023-12-20T01:49:26;3.35;;;1.27;;
76403;SDS011;65232;48.358;2.122;2023-12-20T01:49:51;4.03;;;1.25;;
76403;SDS011;65232;48.358;2.122;2023-12-20T01:50:17;3.80;;;1.00;;
76403;SDS011;65232;48.358;2.122;2023-12-20T01:50:43;3.10;;;1.10;;
76403;SDS011;65232;48.358;2.122;2023-12-20T01:51:10;4.30;;;1.20;;
76403;SDS011;65232;48.358;2.122;2023-12-20T01:51:36;3.58;;;1.17;;
76403;SDS011;65232;48.358;2.122;2023-12-20T01:52:01;7.13;;;1.50;;
76403;SDS011;65232;48.358;2.122;2023-12-20T01:52:27;5.97;;;1.42;;
76403;SDS011;65232;48.358;2.122;2023-12-20T01:52:53;4.20;;;1.20;;
76403;SDS011;65232;48.358;2.122;2023-12-20T01:53:25;4.55;;;1.17;;
76403;SDS011;65232;48.358;2.122;2023-12-20T01:53:51;5.47;;;1.13;;
76403;SDS011;65232;48.358;2.122;2023-12-20T01:54:17;3.30;;;1.10;;
76403;SDS011;65232;48.358;2.122;2023-12-20T01:54:45;4.65;;;1.17;;
76403;SDS011;65232;48.358;2.122;2023-12-20T01:55:10;3.03;;;1.20;;
76403;SDS011;65232;48.358;2.122;2023-12-20T01:55:40;3.28;;;1.45;;
76403;SDS011;65232;48.358;2.122;2023-12-20T01:56:06;4.35;;;1.08;;
76403;SDS011;65232;48.358;2.122;2023-12-20T01:56:32;8.90;;;1.35;;
76403;SDS011;65232;48.358;2.122;2023-12-20T01:56:58;2.55;;;1.02;;
76403;SDS011;65232;48.358;2.122;2023-12-20T01:57:23;4.55;;;1.10;;
76403;SDS011;65232;48.358;2.122;2023-12-20T01:57:49;4.28;;;1.40;;
76403;SDS011;65232;48.358;2.122;2023-12-20T01:58:15;4.68;;;1.38;;
76403;SDS011;65232;48.358;2.122;2023-12-20T01:58:43;5.00;;;1.30;;
76403;SDS011;65232;48.358;2.122;2023-12-20T01:59:11;6.53;;;1.33;;
76403;SDS011;65232;48.358;2.122;2023-12-20T01:59:37;6.40;;;1.58;;
76403;SDS011;65232;48.358;2.122;2023-12-20T02:00:04;5.00;;;1.30;;
76403;SDS011;65232;48.358;2.122;2023-12-20T02:00:34;3.55;;;1.35;;
76403;SDS011;65232;48.358;2.122;2023-12-20T02:01:01;7.55;;;1.30;;
76403;SDS011;65232;48.358;2.122;2023-12-20T02:01:27;4.53;;;1.48;;
76403;SDS011;65232;48.358;2.122;2023-12-20T02:01:53;3.95;;;1.25;;
76403;SDS011;65232;48.358;2.122;2023-12-20T02:02:18;7.53;;;1.38;;
76403;SDS011;65232;48.358;2.122;2023-12-20T02:02:45;2.75;;;1.13;;
76403;SDS011;65232;48.358;2.122;2023-12-20T02:03:11;5.43;;;1.40;;
76403;SDS011;65232;48.358;2.122;2023-12-20T02:03:36;3.50;;;1.02;;
76403;SDS011;65232;48.358;2.122;2023-12-20T02:04:02;3.53;;;1.10;;
76403;SDS011;65232;48.358;2.122;2023-12-20T02:04:27;2.30;;;1.17;;
76403;SDS011;65232;48.358;2.122;2023-12-20T02:04:53;6.22;;;1.33;;
76403;SDS011;65232;48.358;2.122;2023-12-20T02:05:19;4.25;;;1.15;;
76403;SDS011;65232;48.358;2.122;2023-12-20T02:05:45;3.75;;;1.15;;
76403;SDS011;65232;48.358;2.122;2023-12-20T02:06:12;2.45;;;1.00;;
76403;SDS011;65232;48.358;2.122;2023-12-20T02:06:38;6.15;;;1.25;;
76403;SDS011;65232;48.358;2.122;2023-12-20T02:07:05;5.18;;;1.30;;
76403;SDS011;65232;48.358;2.122;2023-12-20T02:07:32;3.92;;;1.13;;
76403;SDS011;65232;48.358;2.122;2023-12-20T02:07:59;4.50;;;1.30;;
76403;SDS011;65232;48.358;2.122;2023-12-20T02:08:25;4.30;;;1.40;;
76403;SDS011;65232;48.358;2.122;2023-12-20T02:08:50;6.18;;;1.35;;
76403;SDS011;65232;48.358;2.122;2023-12-20T02:09:16;3.50;;;1.20;;
76403;SDS011;65232;48.358;2.122;2023-12-20T02:09:41;3.92;;;1.27;;
76403;SDS011;65232;48.358;2.122;2023-12-20T02:10:07;3.70;;;1.10;;
76403;SDS011;65232;48.358;2.122;2023-12-20T02:10:33;4.78;;;1.45;;
76403;SDS011;65232;48.358;2.122;2023-12-20T02:10:59;5.10;;;1.15;;
76403;SDS011;65232;48.358;2.122;2023-12-20T02:11:25;3.97;;;1.30;;
76403;SDS011;65232;48.358;2.122;2023-12-20T02:11:51;2.92;;;1.13;;
76403;SDS011;65232;48.358;2.122;2023-12-20T02:12:16;6.28;;;1.25;;
76403;SDS011;65232;48.358;2.122;2023-12-20T02:12:42;5.57;;;1.42;;
76403;SDS011;65232;48.358;2.122;2023-12-20T02:13:07;2.75;;;1.08;;
76403;SDS011;65232;48.358;2.122;2023-12-20T02:13:33;3.08;;;1.40;;
76403;SDS011;65232;48.358;2.122;2023-12-20T02:13:58;4.45;;;1.52;;
76403;SDS011;65232;48.358;2.122;2023-12-20T02:14:24;7.15;;;1.30;;
76403;SDS011;65232;48.358;2.122;2023-12-20T02:14:49;4.20;;;1.73;;
76403;SDS011;65232;48.358;2.122;2023-12-20T02:15:14;4.57;;;1.30;;
76403;SDS011;65232;48.358;2.122;2023-12-20T02:15:40;4.63;;;1.58;;
76403;SDS011;65232;48.358;2.122;2023-12-20T02:16:08;4.78;;;1.40;;
76403;SDS011;65232;48.358;2.122;2023-12-20T02:16:34;4.28;;;1.20;;
76403;SDS011;65232;48.358;2.122;2023-12-20T02:16:59;6.20;;;1.40;;
76403;SDS011;65232;48.358;2.122;2023-12-20T02:17:25;6.03;;;1.38;;
76403;SDS011;65232;48.358;2.122;2023-12-20T02:17:51;3.53;;;1.35;;
76403;SDS011;65232;48.358;2.122;2023-12-20T02:18:16;4.57;;;1.00;;
76403;SDS011;65232;48.358;2.122;2023-12-20T02:18:42;4.88;;;1.48;;
76403;SDS011;65232;48.358;2.122;2023-12-20T02:19:12;3.28;;;0.98;;
76403;SDS011;65232;48.358;2.122;2023-12-20T02:19:39;4.28;;;1.35;;
76403;SDS011;65232;48.358;2.122;2023-12-20T02:20:05;5.18;;;1.15;;
76403;SDS011;65232;48.358;2.122;2023-12-20T02:20:56;3.55;;;1.30;;
76403;SDS011;65232;48.358;2.122;2023-12-20T02:21:25;5.38;;;1.10;;
76403;SDS011;65232;48.358;2.122;2023-12-20T02:22:09;4.32;;;1.30;;
76403;SDS011;65232;48.358;2.122;2023-12-20T02:22:37;2.17;;;0.90;;
76403;SDS011;65232;48.358;2.122;2023-12-20T02:23:02;1.77;;;0.75;;
76403;SDS011;65232;48.358;2.122;2023-12-20T02:23:28;4.35;;;1.30;;
76403;SDS011;65232;48.358;2.122;2023-12-20T02:23:53;5.97;;;1.08;;
76403;SDS011;65232;48.358;2.122;2023-12-20T02:24:19;4.25;;;1.10;;
76403;SDS011;65232;48.358;2.122;2023-12-20T02:24:44;3.50;;;1.02;;
76403;SDS011;65232;48.358;2.122;2023-12-20T02:25:09;3.85;;;0.93;;
76403;SDS011;65232;48.358;2.122;2023-12-20T02:25:35;6.35;;;1.10;;
76403;SDS011;65232;48.358;2.122;2023-12-20T02:26:00;5.35;;;1.40;;
76403;SDS011;65232;48.358;2.122;2023-12-20T02:26:26;5.93;;;1.27;;
76403;SDS011;65232;48.358;2.122;2023-12-20T02:26:51;3.22;;;1.05;;
76403;SDS011;65232;48.358;2.122;2023-12-20T02:27:17;5.05;;;1.20;;
76403;SDS011;65232;48.358;2.122;2023-12-20T02:27:44;7.10;;;1.20;;
76403;SDS011;65232;48.358;2.122;2023-12-20T02:28:10;3.38;;;1.08;;
76403;SDS011;65232;48.358;2.122;2023-12-20T02:28:35;2.45;;;0.90;;
76403;SDS011;65232;48.358;2.122;2023-12-20T02:29:01;5.43;;;1.10;;
76403;SDS011;65232;48.358;2.122;2023-12-20T02:29:27;6.20;;;1.10;;
76403;SDS011;65232;48.358;2.122;2023-12-20T02:29:52;5.45;;;1.40;;
76403;SDS011;65232;48.358;2.122;2023-12-20T02:30:18;6.07;;;1.98;;
76403;SDS011;65232;48.358;2.122;2023-12-20T02:30:43;4.10;;;1.10;;
76403;SDS011;65232;48.358;2.122;2023-12-20T02:31:09;3.83;;;1.20;;
76403;SDS011;65232;48.358;2.122;2023-12-20T02:31:34;3.53;;;1.73;;
76403;SDS011;65232;48.358;2.122;2023-12-20T02:31:59;6.00;;;1.10;;
76403;SDS011;65232;48.358;2.122;2023-12-20T02:32:25;4.78;;;1.02;;
76403;SDS011;65232;48.358;2.122;2023-12-20T02:32:51;2.15;;;0.82;;
76403;SDS011;65232;48.358;2.122;2023-12-20T02:33:18;2.40;;;0.90;;
76403;SDS011;65232;48.358;2.122;2023-12-20T02:33:43;4.93;;;1.00;;
76403;SDS011;65232;48.358;2.122;2023-12-20T02:34:08;5.95;;;1.00;;
76403;SDS011;65232;48.358;2.122;2023-12-20T02:34:34;3.08;;;1.00;;
76403;SDS011;65232;48.358;2.122;2023-12-20T02:34:59;4.07;;;1.08;;
76403;SDS011;65232;48.358;2.122;2023-12-20T02:35:25;4.55;;;1.33;;
76403;SDS011;65232;48.358;2.122;2023-12-20T02:35:50;3.60;;;1.15;;
76403;SDS011;65232;48.358;2.122;2023-12-20T02:36:17;6.20;;;1.30;;